createdAt,value
2023-05-06T00:00:02.814Z,117.90
2023-05-06T00:01:02.851Z,117.34
2023-05-06T00:02:02.939Z,118.23
2023-05-06T00:03:03.053Z,116.21
2023-05-06T00:04:03.284Z,117.36
2023-05-06T00:05:03.120Z,117.59
2023-05-06T00:06:03.154Z,117.51
2023-05-06T00:07:03.220Z,116.78
2023-05-06T00:08:03.268Z,118.80
2023-05-06T00:09:03.360Z,117.69
2023-05-06T00:10:03.425Z,118.56
2023-05-06T00:11:03.441Z,118.68
2023-05-06T00:12:03.511Z,119.51
2023-05-06T00:13:03.603Z,119.09
2023-05-06T00:14:03.645Z,119.92
2023-05-06T00:15:03.713Z,117.12
2023-05-06T00:16:03.845Z,117.05
2023-05-06T00:17:03.841Z,117.39
2023-05-06T00:18:03.912Z,119.01
2023-05-06T00:19:03.940Z,116.86
2023-05-06T00:20:04.018Z,117.48
2023-05-06T00:21:04.085Z,117.58
2023-05-06T00:22:04.216Z,117.27
2023-05-06T00:23:04.188Z,116.23
2023-05-06T00:24:04.258Z,118.08
2023-05-06T00:25:04.306Z,119.07
2023-05-06T00:26:04.392Z,117.94
2023-05-06T00:27:04.434Z,116.90
2023-05-06T00:28:04.501Z,117.57
2023-05-06T00:29:04.545Z,117.19
2023-05-06T00:30:04.627Z,119.72
2023-05-06T00:31:04.639Z,118.84
2023-05-06T00:32:04.790Z,114.98
2023-05-06T00:33:04.841Z,117.09
2023-05-06T00:34:04.858Z,115.94
2023-05-06T00:35:04.959Z,118.22
2023-05-06T00:36:04.956Z,114.76
2023-05-06T00:37:05.013Z,117.26
2023-05-06T00:38:05.086Z,116.16
2023-05-06T00:39:05.124Z,116.21
2023-05-06T00:40:05.188Z,117.81
2023-05-06T00:41:05.224Z,114.68
2023-05-06T00:42:05.302Z,114.65
2023-05-06T00:43:05.357Z,115.73
2023-05-06T00:44:05.378Z,116.61
2023-05-06T00:45:05.423Z,115.63
2023-05-06T00:46:05.587Z,113.38
2023-05-06T00:47:05.552Z,115.99
2023-05-06T00:48:05.761Z,115.98
2023-05-06T00:49:05.672Z,117.56
2023-05-06T00:50:05.734Z,116.69
2023-05-06T00:51:05.758Z,115.58
2023-05-06T00:52:05.834Z,115.77
2023-05-06T00:53:05.874Z,115.01
2023-05-06T00:54:06.131Z,113.05
2023-05-06T00:55:06.034Z,115.88
2023-05-06T00:56:06.052Z,114.60
2023-05-06T00:57:06.122Z,114.86
2023-05-06T00:58:06.150Z,113.70
2023-05-06T00:59:06.208Z,116.23
2023-05-06T01:00:06.295Z,113.64
2023-05-06T01:01:06.371Z,114.62
2023-05-06T01:02:06.407Z,115.71
2023-05-06T01:03:06.566Z,113.76
2023-05-06T01:04:06.582Z,114.23
2023-05-06T01:05:06.689Z,113.46
2023-05-06T01:06:06.620Z,114.29
2023-05-06T01:07:06.632Z,114.82
2023-05-06T01:08:06.708Z,114.18
2023-05-06T01:09:06.767Z,110.64
2023-05-06T01:10:06.853Z,112.73
2023-05-06T01:11:06.839Z,114.73
2023-05-06T01:12:06.874Z,113.21
2023-05-06T01:13:06.927Z,112.47
2023-05-06T01:14:06.907Z,112.11
2023-05-06T01:15:07.062Z,113.02
2023-05-06T01:16:06.992Z,114.57
2023-05-06T01:17:07.091Z,113.12
2023-05-06T01:18:07.128Z,113.50
2023-05-06T01:19:07.143Z,111.84
2023-05-06T01:20:07.217Z,112.34
2023-05-06T01:21:07.253Z,111.17
2023-05-06T01:22:07.309Z,110.92
2023-05-06T01:23:07.329Z,113.46
2023-05-06T01:24:07.379Z,114.37
2023-05-06T01:25:07.643Z,113.30
2023-05-06T01:26:07.595Z,110.12
2023-05-06T01:27:07.559Z,112.88
2023-05-06T01:28:07.595Z,111.06
2023-05-06T01:29:07.648Z,113.79
2023-05-06T01:30:07.681Z,112.56
2023-05-06T01:31:07.744Z,113.05
2023-05-06T01:32:07.730Z,113.61
2023-05-06T01:33:07.804Z,111.81
2023-05-06T01:34:07.851Z,110.19
2023-05-06T01:35:08.250Z,108.82
2023-05-06T01:36:07.879Z,111.61
2023-05-06T01:37:07.949Z,109.62
2023-05-06T01:38:07.973Z,113.05
2023-05-06T01:39:07.968Z,111.77
2023-05-06T01:40:08.051Z,110.09
2023-05-06T01:41:08.061Z,111.33
2023-05-06T01:42:08.090Z,110.97
2023-05-06T01:43:08.113Z,111.34
2023-05-06T01:44:08.116Z,111.61
2023-05-06T01:45:08.384Z,110.18
2023-05-06T01:46:08.220Z,109.45
2023-05-06T01:47:08.213Z,110.05
2023-05-06T01:48:08.303Z,112.63
2023-05-06T01:49:08.313Z,109.41
2023-05-06T01:50:08.359Z,111.63
2023-05-06T01:51:08.404Z,109.22
2023-05-06T01:52:08.441Z,109.39
2023-05-06T01:53:08.484Z,107.89
2023-05-06T01:54:08.531Z,110.58
2023-05-06T01:55:08.877Z,109.19
2023-05-06T01:56:08.598Z,108.86
2023-05-06T01:57:08.641Z,114.00
2023-05-06T01:58:08.736Z,112.94
2023-05-06T01:59:08.682Z,107.81
2023-05-06T02:00:08.774Z,108.88
2023-05-06T02:02:08.978Z,110.67
2023-05-06T02:03:08.983Z,110.64
2023-05-06T02:04:08.964Z,108.54
2023-05-06T02:05:09.187Z,107.73
2023-05-06T02:06:08.947Z,110.65
2023-05-06T02:07:08.943Z,106.84
2023-05-06T02:08:08.990Z,109.24
2023-05-06T02:09:08.990Z,109.18
2023-05-06T02:10:09.031Z,108.03
2023-05-06T02:11:09.043Z,109.92
2023-05-06T02:12:09.071Z,108.50
2023-05-06T02:13:09.100Z,107.89
2023-05-06T02:14:09.155Z,109.09
2023-05-06T02:15:09.388Z,111.51
2023-05-06T02:16:09.234Z,108.27
2023-05-06T02:17:09.170Z,109.49
2023-05-06T02:18:09.165Z,106.86
2023-05-06T02:19:09.168Z,108.53
2023-05-06T02:20:09.178Z,108.06
2023-05-06T02:21:09.214Z,106.94
2023-05-06T02:22:09.207Z,107.29
2023-05-06T02:23:09.193Z,108.12
2023-05-06T02:24:09.204Z,108.76
2023-05-06T02:26:09.224Z,105.51
2023-05-06T02:27:09.259Z,105.83
2023-05-06T02:28:09.235Z,111.65
2023-05-06T02:29:09.232Z,112.10
2023-05-06T02:30:09.349Z,106.40
2023-05-06T02:31:09.235Z,106.52
2023-05-06T02:32:09.256Z,106.67
2023-05-06T02:33:09.268Z,106.08
2023-05-06T02:34:09.283Z,110.01
2023-05-06T02:35:09.454Z,107.50
2023-05-06T02:36:09.289Z,106.98
2023-05-06T02:37:09.292Z,106.61
2023-05-06T02:38:09.257Z,105.82
2023-05-06T02:39:09.305Z,108.79
2023-05-06T02:40:09.312Z,107.46
2023-05-06T02:41:09.306Z,104.35
2023-05-06T02:42:09.354Z,108.16
2023-05-06T02:43:09.334Z,105.98
2023-05-06T02:44:09.356Z,106.55
2023-05-06T02:45:09.558Z,104.38
2023-05-06T02:46:09.420Z,105.07
2023-05-06T02:47:09.345Z,106.85
2023-05-06T02:48:09.367Z,102.44
2023-05-06T02:49:09.332Z,104.75
2023-05-06T02:50:09.371Z,102.97
2023-05-06T02:51:09.353Z,108.82
2023-05-06T02:52:09.377Z,102.96
2023-05-06T02:53:09.345Z,108.11
2023-05-06T02:54:09.316Z,106.13
2023-05-06T02:55:09.437Z,107.61
2023-05-06T02:56:09.344Z,106.16
2023-05-06T02:57:09.333Z,103.35
2023-05-06T02:58:09.344Z,105.62
2023-05-06T02:59:09.354Z,106.65
2023-05-06T03:00:09.323Z,105.64
2023-05-06T03:01:09.388Z,106.40
2023-05-06T03:02:09.386Z,108.51
2023-05-06T03:03:09.399Z,104.23
2023-05-06T03:04:09.396Z,104.82
2023-05-06T03:05:09.574Z,101.17
2023-05-06T03:06:09.357Z,108.40
2023-05-06T03:07:09.386Z,103.13
2023-05-06T03:08:09.373Z,100.62
2023-05-06T03:09:09.379Z,101.86
2023-05-06T03:10:09.394Z,100.30
2023-05-06T03:11:09.351Z,106.99
2023-05-06T03:12:09.382Z,108.37
2023-05-06T03:13:09.474Z,103.34
2023-05-06T03:14:09.356Z,100.48
2023-05-06T03:15:09.678Z,104.08
2023-05-06T03:16:09.425Z,101.08
2023-05-06T03:17:09.366Z,104.96
2023-05-06T03:18:09.475Z,107.44
2023-05-06T03:19:09.395Z,101.95
2023-05-06T03:20:09.371Z,106.96
2023-05-06T03:21:09.408Z,100.31
2023-05-06T03:22:09.357Z,101.11
2023-05-06T03:23:09.363Z,98.61
2023-05-06T03:24:09.359Z,106.60
2023-05-06T03:25:09.460Z,101.62
2023-05-06T03:26:09.348Z,102.09
2023-05-06T03:27:09.334Z,104.36
2023-05-06T03:28:09.334Z,104.11
2023-05-06T03:29:09.353Z,102.22
2023-05-06T03:30:09.364Z,103.24
2023-05-06T03:31:09.381Z,103.14
2023-05-06T03:32:09.326Z,99.80
2023-05-06T03:33:09.334Z,99.90
2023-05-06T03:34:10.332Z,102.66
2023-05-06T03:35:09.489Z,100.71
2023-05-06T03:36:09.407Z,103.51
2023-05-06T03:37:09.292Z,102.34
2023-05-06T03:38:09.291Z,98.88
2023-05-06T03:39:09.266Z,101.69
2023-05-06T03:40:09.298Z,99.69
2023-05-06T03:41:09.285Z,99.79
2023-05-06T03:42:09.934Z,97.29
2023-05-06T03:43:09.252Z,102.75
2023-05-06T03:44:09.254Z,101.77
2023-05-06T03:45:09.450Z,103.81
2023-05-06T03:46:09.282Z,105.97
2023-05-06T03:47:09.243Z,101.32
2023-05-06T03:48:09.280Z,101.38
2023-05-06T03:49:09.224Z,97.61
2023-05-06T03:50:09.266Z,98.90
2023-05-06T03:51:10.194Z,101.77
2023-05-06T03:52:09.241Z,99.02
2023-05-06T03:53:09.197Z,98.83
2023-05-06T03:54:09.234Z,101.65
2023-05-06T03:55:09.356Z,101.41
2023-05-06T03:56:09.220Z,101.07
2023-05-06T03:57:09.215Z,98.71
2023-05-06T03:58:09.181Z,105.10
2023-05-06T03:59:09.212Z,99.25
2023-05-06T04:00:09.170Z,102.45
2023-05-06T04:01:09.194Z,99.29
2023-05-06T04:02:09.229Z,98.65
2023-05-06T04:03:09.250Z,97.53
2023-05-06T04:04:09.274Z,103.84
2023-05-06T04:05:09.347Z,96.68
2023-05-06T04:06:09.177Z,106.83
2023-05-06T04:07:09.205Z,101.69
2023-05-06T04:08:09.179Z,99.02
2023-05-06T04:09:09.172Z,98.69
2023-05-06T04:10:09.157Z,101.60
2023-05-06T04:11:09.192Z,99.57
2023-05-06T04:12:09.170Z,97.72
2023-05-06T04:13:09.234Z,99.23
2023-05-06T04:14:09.154Z,101.02
2023-05-06T04:15:09.431Z,97.72
2023-05-06T04:16:09.189Z,100.33
2023-05-06T04:17:09.134Z,99.97
2023-05-06T04:18:09.191Z,104.11
2023-05-06T04:19:09.124Z,100.28
2023-05-06T04:20:09.185Z,95.24
2023-05-06T04:21:09.135Z,96.33
2023-05-06T04:22:09.138Z,100.68
2023-05-06T04:23:09.123Z,93.28
2023-05-06T04:24:09.140Z,95.54
2023-05-06T04:25:09.302Z,95.21
2023-05-06T04:26:09.110Z,95.60
2023-05-06T04:27:09.127Z,100.52
2023-05-06T04:28:09.089Z,93.79
2023-05-06T04:29:09.124Z,96.64
2023-05-06T04:30:09.109Z,96.74
2023-05-06T04:31:09.127Z,96.33
2023-05-06T04:32:09.256Z,96.08
2023-05-06T04:33:09.191Z,99.31
2023-05-06T04:34:09.097Z,95.48
2023-05-06T04:35:09.287Z,96.98
2023-05-06T04:36:09.101Z,99.87
2023-05-06T04:37:09.089Z,94.70
2023-05-06T04:38:09.176Z,98.18
2023-05-06T04:39:09.101Z,95.76
2023-05-06T04:40:09.151Z,92.37
2023-05-06T04:41:09.113Z,92.82
2023-05-06T04:42:09.103Z,93.10
2023-05-06T04:43:09.082Z,95.61
2023-05-06T04:44:09.103Z,97.15
2023-05-06T04:45:09.293Z,97.23
2023-05-06T04:46:09.083Z,93.33
2023-05-06T04:47:09.109Z,98.42
2023-05-06T04:48:09.091Z,94.15
2023-05-06T04:49:10.814Z,97.40
2023-05-06T04:50:09.096Z,99.62
2023-05-06T04:51:09.065Z,97.77
2023-05-06T04:52:09.029Z,94.40
2023-05-06T04:53:09.038Z,90.06
2023-05-06T04:54:09.052Z,98.24
2023-05-06T04:55:09.350Z,95.37
2023-05-06T04:56:09.007Z,98.30
2023-05-06T04:57:09.003Z,93.53
2023-05-06T04:58:09.017Z,99.36
2023-05-06T04:59:09.004Z,95.25
2023-05-06T05:00:09.218Z,93.77
2023-05-06T05:01:09.056Z,99.65
2023-05-06T05:02:09.018Z,93.58
2023-05-06T05:03:09.057Z,92.01
2023-05-06T05:04:08.947Z,94.45
2023-05-06T05:05:09.272Z,94.57
2023-05-06T05:06:08.975Z,93.24
2023-05-06T05:07:08.934Z,89.99
2023-05-06T05:08:08.916Z,93.95
2023-05-06T05:09:08.931Z,94.64
2023-05-06T05:10:08.987Z,94.98
2023-05-06T05:11:08.923Z,97.40
2023-05-06T05:12:08.914Z,96.59
2023-05-06T05:13:08.963Z,99.25
2023-05-06T05:14:08.899Z,96.65
2023-05-06T05:15:09.258Z,91.18
2023-05-06T05:16:08.882Z,95.40
2023-05-06T05:17:08.978Z,97.78
2023-05-06T05:18:09.007Z,91.41
2023-05-06T05:19:09.504Z,91.79
2023-05-06T05:20:08.842Z,95.43
2023-05-06T05:21:08.819Z,92.09
2023-05-06T05:22:08.810Z,90.07
2023-05-06T05:23:08.814Z,94.74
2023-05-06T05:24:08.822Z,91.17
2023-05-06T05:25:08.875Z,87.37
2023-05-06T05:26:08.866Z,90.32
2023-05-06T05:27:08.784Z,96.18
2023-05-06T05:28:08.762Z,93.10
2023-05-06T05:29:08.790Z,91.52
2023-05-06T05:30:08.763Z,93.13
2023-05-06T05:31:10.490Z,86.63
2023-05-06T05:32:08.741Z,95.59
2023-05-06T05:33:08.863Z,91.91
2023-05-06T05:34:08.726Z,92.80
2023-05-06T05:35:08.922Z,93.93
2023-05-06T05:36:08.747Z,95.58
2023-05-06T05:37:08.701Z,94.66
2023-05-06T05:38:08.733Z,87.72
2023-05-06T05:39:08.712Z,94.88
2023-05-06T05:40:08.685Z,89.97
2023-05-06T05:41:08.682Z,91.67
2023-05-06T05:42:08.667Z,88.93
2023-05-06T05:43:08.658Z,90.02
2023-05-06T05:44:08.691Z,87.42
2023-05-06T05:45:08.870Z,93.47
2023-05-06T05:46:08.650Z,87.68
2023-05-06T05:47:08.631Z,89.13
2023-05-06T05:48:08.641Z,88.56
2023-05-06T05:49:08.637Z,90.81
2023-05-06T05:50:08.642Z,89.29
2023-05-06T05:51:08.638Z,88.87
2023-05-06T05:52:08.642Z,93.43
2023-05-06T05:53:08.593Z,97.02
2023-05-06T05:54:08.581Z,91.20
2023-05-06T05:55:08.692Z,90.57
2023-05-06T05:56:08.593Z,88.35
2023-05-06T05:57:08.601Z,94.61
2023-05-06T05:58:08.575Z,91.93
2023-05-06T05:59:08.571Z,95.97
2023-05-06T06:00:08.550Z,87.24
2023-05-06T06:01:08.563Z,89.65
2023-05-06T06:02:08.545Z,86.12
2023-05-06T06:03:08.622Z,88.20
2023-05-06T06:04:09.445Z,86.17
2023-05-06T06:05:08.796Z,83.78
2023-05-06T06:06:08.533Z,87.86
2023-05-06T06:07:08.495Z,89.78
2023-05-06T06:08:08.481Z,87.74
2023-05-06T06:09:08.465Z,84.80
2023-05-06T06:10:08.476Z,86.89
2023-05-06T06:11:08.494Z,83.56
2023-05-06T06:12:08.446Z,88.61
2023-05-06T06:13:08.592Z,83.86
2023-05-06T06:14:08.525Z,86.61
2023-05-06T06:15:08.714Z,84.34
2023-05-06T06:16:08.640Z,86.51
2023-05-06T06:17:08.483Z,87.72
2023-05-06T06:18:08.499Z,90.38
2023-05-06T06:19:08.452Z,85.00
2023-05-06T06:20:08.425Z,87.01
2023-05-06T06:21:08.413Z,85.18
2023-05-06T06:22:08.396Z,84.99
2023-05-06T06:23:08.376Z,85.31
2023-05-06T06:24:08.368Z,85.00
2023-05-06T06:25:08.447Z,84.66
2023-05-06T06:26:09.140Z,81.04
2023-05-06T06:27:08.365Z,86.82
2023-05-06T06:28:08.322Z,82.43
2023-05-06T06:29:08.337Z,84.78
2023-05-06T06:30:08.415Z,83.41
2023-05-06T06:31:08.366Z,85.08
2023-05-06T06:32:08.413Z,85.79
2023-05-06T06:33:08.318Z,84.64
2023-05-06T06:34:08.294Z,84.79
2023-05-06T06:35:08.508Z,86.18
2023-05-06T06:36:08.277Z,84.77
2023-05-06T06:37:08.302Z,85.47
2023-05-06T06:38:08.276Z,82.60
2023-05-06T06:39:08.272Z,79.75
2023-05-06T06:40:08.269Z,86.87
2023-05-06T06:41:08.268Z,83.25
2023-05-06T06:42:08.257Z,79.10
2023-05-06T06:43:08.227Z,85.29
2023-05-06T06:44:08.232Z,91.57
2023-05-06T06:45:08.443Z,85.09
2023-05-06T06:46:08.360Z,82.45
2023-05-06T06:47:08.223Z,83.91
2023-05-06T06:48:08.255Z,86.34
2023-05-06T06:49:08.210Z,83.07
2023-05-06T06:50:08.208Z,80.30
2023-05-06T06:51:08.187Z,86.83
2023-05-06T06:52:08.155Z,83.99
2023-05-06T06:53:08.177Z,82.84
2023-05-06T06:54:08.182Z,80.61
2023-05-06T06:55:08.362Z,81.71
2023-05-06T06:56:08.174Z,84.02
2023-05-06T06:57:08.137Z,81.90
2023-05-06T06:58:08.139Z,81.12
2023-05-06T06:59:08.150Z,84.16
2023-05-06T07:00:08.175Z,78.65
2023-05-06T07:01:08.168Z,80.55
2023-05-06T07:02:08.142Z,87.12
2023-05-06T07:03:08.150Z,81.31
2023-05-06T07:04:08.109Z,83.39
2023-05-06T07:05:08.268Z,81.93
2023-05-06T07:06:08.094Z,81.39
2023-05-06T07:07:08.094Z,84.07
2023-05-06T07:08:08.101Z,80.38
2023-05-06T07:09:08.099Z,88.03
2023-05-06T07:10:08.103Z,82.05
2023-05-06T07:11:08.084Z,84.40
2023-05-06T07:12:08.128Z,82.89
2023-05-06T07:13:08.120Z,80.92
2023-05-06T07:14:08.118Z,80.39
2023-05-06T07:15:08.235Z,77.98
2023-05-06T07:16:08.128Z,82.55
2023-05-06T07:17:08.113Z,82.26
2023-05-06T07:18:08.134Z,80.68
2023-05-06T07:19:08.135Z,79.52
2023-05-06T07:20:08.193Z,85.96
2023-05-06T07:21:08.179Z,80.16
2023-05-06T07:22:08.155Z,78.98
2023-05-06T07:23:08.196Z,80.97
2023-05-06T07:24:08.214Z,83.14
2023-05-06T07:25:08.278Z,82.85
2023-05-06T07:26:08.219Z,80.72
2023-05-06T07:27:08.252Z,78.24
2023-05-06T07:28:08.253Z,80.17
2023-05-06T07:29:08.279Z,79.43
2023-05-06T07:30:08.313Z,78.51
2023-05-06T07:31:08.351Z,77.19
2023-05-06T07:32:08.323Z,77.95
2023-05-06T07:33:08.365Z,78.26
2023-05-06T07:34:08.331Z,79.02
2023-05-06T07:35:08.481Z,78.08
2023-05-06T07:36:08.371Z,77.62
2023-05-06T07:37:08.426Z,76.55
2023-05-06T07:38:08.445Z,76.90
2023-05-06T07:39:08.452Z,74.64
2023-05-06T07:40:08.499Z,75.36
2023-05-06T07:41:08.554Z,74.16
2023-05-06T07:42:08.619Z,74.35
2023-05-06T07:43:08.616Z,73.37
2023-05-06T07:44:08.632Z,73.98
2023-05-06T07:45:08.851Z,73.59
2023-05-06T07:46:08.735Z,75.42
2023-05-06T07:47:08.860Z,78.39
2023-05-06T07:48:08.861Z,75.78
2023-05-06T07:49:08.860Z,76.96
2023-05-06T07:50:09.032Z,73.02
2023-05-06T07:51:08.980Z,75.18
2023-05-06T07:52:09.036Z,77.10
2023-05-06T07:53:09.038Z,74.71
2023-05-06T07:54:09.106Z,76.15
2023-05-06T07:55:09.487Z,73.93
2023-05-06T07:56:09.224Z,75.16
2023-05-06T07:57:09.274Z,74.89
2023-05-06T07:58:09.340Z,71.80
2023-05-06T07:59:09.390Z,76.47
2023-05-06T08:00:09.447Z,75.58
2023-05-06T08:01:09.497Z,71.44
2023-05-06T08:02:09.607Z,75.19
2023-05-06T08:03:09.806Z,73.20
2023-05-06T08:04:09.760Z,72.55
2023-05-06T08:05:09.910Z,70.20
2023-05-06T08:06:09.853Z,74.19
2023-05-06T08:07:09.854Z,73.51
2023-05-06T08:08:09.920Z,70.89
2023-05-06T08:09:11.373Z,71.71
2023-05-06T08:10:09.967Z,74.57
2023-05-06T08:11:09.989Z,73.54
2023-05-06T08:12:09.960Z,73.69
2023-05-06T08:13:10.029Z,70.96
2023-05-06T08:14:09.915Z,70.43
2023-05-06T08:15:10.107Z,71.43
2023-05-06T08:16:09.964Z,71.74
2023-05-06T08:17:09.920Z,75.17
2023-05-06T08:18:20.937Z,70.84
2023-05-06T08:19:10.931Z,71.27
2023-05-06T08:20:09.896Z,71.86
2023-05-06T08:21:09.874Z,71.47
2023-05-06T08:22:09.930Z,74.19
2023-05-06T08:23:09.864Z,73.67
2023-05-06T08:24:09.855Z,71.37
2023-05-06T08:25:10.072Z,74.07
2023-05-06T08:26:09.859Z,72.00
2023-05-06T08:27:09.841Z,72.75
2023-05-06T08:28:09.893Z,71.32
2023-05-06T08:29:09.964Z,70.47
2023-05-06T08:30:10.072Z,67.31
2023-05-06T08:31:10.207Z,72.91
2023-05-06T08:32:10.221Z,70.97
2023-05-06T08:33:10.235Z,68.34
2023-05-06T08:34:10.267Z,66.04
2023-05-06T08:35:10.529Z,70.76
2023-05-06T08:36:10.362Z,70.63
2023-05-06T08:37:10.481Z,70.91
2023-05-06T08:38:10.616Z,70.26
2023-05-06T08:39:10.598Z,64.43
2023-05-06T08:40:10.684Z,67.44
2023-05-06T08:41:10.671Z,72.79
2023-05-06T08:42:10.745Z,67.17
2023-05-06T08:43:10.815Z,72.60
2023-05-06T08:44:10.859Z,66.31
2023-05-06T08:45:11.079Z,67.43
2023-05-06T08:46:11.014Z,67.50
2023-05-06T08:47:11.058Z,67.44
2023-05-06T08:48:11.115Z,69.49
2023-05-06T08:49:11.186Z,68.16
2023-05-06T08:50:11.274Z,67.91
2023-05-06T08:51:11.320Z,65.16
2023-05-06T08:52:11.356Z,70.12
2023-05-06T08:53:11.462Z,64.14
2023-05-06T08:54:11.604Z,70.97
2023-05-06T08:55:11.757Z,70.38
2023-05-06T08:56:11.638Z,66.38
2023-05-06T08:57:12.568Z,67.73
2023-05-06T08:58:11.704Z,65.47
2023-05-06T08:59:11.785Z,67.13
2023-05-06T09:00:11.863Z,65.43
2023-05-06T09:01:11.935Z,67.91
2023-05-06T09:02:11.967Z,66.58
2023-05-06T09:03:12.034Z,66.21
2023-05-06T09:04:12.089Z,66.63
2023-05-06T09:05:12.403Z,68.91
2023-05-06T09:06:12.172Z,68.16
2023-05-06T09:07:12.232Z,66.72
2023-05-06T09:08:12.294Z,67.70
2023-05-06T09:09:12.373Z,65.51
2023-05-06T09:10:12.936Z,65.61
2023-05-06T09:11:12.435Z,64.82
2023-05-06T09:12:12.519Z,67.07
2023-05-06T09:13:12.596Z,66.42
2023-05-06T09:14:12.655Z,68.73
2023-05-06T09:15:12.931Z,66.93
2023-05-06T09:16:12.797Z,69.00
2023-05-06T09:17:12.868Z,66.73
2023-05-06T09:18:12.987Z,68.33
2023-05-06T09:19:12.949Z,70.26
2023-05-06T09:20:12.995Z,65.87
2023-05-06T09:21:13.047Z,67.67
2023-05-06T09:22:13.097Z,65.65
2023-05-06T09:23:13.163Z,68.06
2023-05-06T09:24:13.244Z,66.93
2023-05-06T09:25:13.395Z,63.29
2023-05-06T09:26:13.404Z,65.64
2023-05-06T09:27:15.180Z,69.55
2023-05-06T09:28:13.435Z,68.94
2023-05-06T09:29:13.550Z,66.38
2023-05-06T09:30:13.612Z,66.48
2023-05-06T09:31:13.684Z,67.03
2023-05-06T09:32:13.716Z,63.89
2023-05-06T09:33:13.808Z,64.66
2023-05-06T09:34:13.803Z,65.83
2023-05-06T09:35:14.065Z,64.56
2023-05-06T09:36:13.922Z,63.56
2023-05-06T09:37:13.956Z,65.83
2023-05-06T09:38:14.014Z,62.41
2023-05-06T09:39:14.100Z,62.37
2023-05-06T09:40:14.152Z,65.42
2023-05-06T09:41:14.211Z,62.57
2023-05-06T09:42:14.496Z,61.47
2023-05-06T09:43:14.328Z,61.75
2023-05-06T09:44:14.421Z,66.33
2023-05-06T09:45:14.469Z,66.69
2023-05-06T09:46:14.591Z,63.21
2023-05-06T09:47:14.560Z,65.47
2023-05-06T09:48:14.644Z,65.81
2023-05-06T09:49:14.676Z,60.81
2023-05-06T09:50:14.741Z,60.67
2023-05-06T09:51:14.781Z,61.25
2023-05-06T09:52:14.884Z,61.09
2023-05-06T09:53:14.947Z,59.31
2023-05-06T09:54:15.000Z,63.86
2023-05-06T09:55:15.057Z,61.56
2023-05-06T09:56:15.134Z,65.01
2023-05-06T09:57:15.171Z,63.82
2023-05-06T09:58:15.311Z,61.86
2023-05-06T09:59:15.868Z,62.40
2023-05-06T10:00:15.332Z,63.84
2023-05-06T10:01:25.154Z,63.41
2023-05-06T10:02:16.481Z,63.56
2023-05-06T10:03:15.532Z,62.80
2023-05-06T10:04:15.489Z,64.08
2023-05-06T10:05:15.781Z,58.70
2023-05-06T10:06:15.384Z,62.44
2023-05-06T10:07:15.381Z,60.01
2023-05-06T10:08:15.356Z,61.80
2023-05-06T10:09:15.367Z,59.82
2023-05-06T10:10:15.349Z,60.02
2023-05-06T10:11:15.352Z,59.73
2023-05-06T10:12:15.379Z,59.41
2023-05-06T10:13:15.464Z,62.73
2023-05-06T10:14:15.553Z,60.32
2023-05-06T10:15:15.537Z,60.59
2023-05-06T10:16:15.889Z,59.71
2023-05-06T10:17:15.664Z,57.56
2023-05-06T10:18:15.686Z,59.57
2023-05-06T10:19:15.731Z,57.02
2023-05-06T10:20:15.813Z,60.64
2023-05-06T10:21:15.826Z,58.71
2023-05-06T10:22:15.919Z,61.82
2023-05-06T10:23:15.954Z,59.41
2023-05-06T10:24:16.016Z,60.39
2023-05-06T10:25:16.063Z,59.65
2023-05-06T10:26:16.105Z,60.83
2023-05-06T10:27:16.154Z,59.62
2023-05-06T10:28:18.330Z,56.81
2023-05-06T10:29:17.182Z,57.07
2023-05-06T10:30:16.167Z,58.17
2023-05-06T10:31:16.210Z,59.01
2023-05-06T10:32:16.184Z,60.21
2023-05-06T10:33:16.152Z,59.74
2023-05-06T10:34:16.147Z,59.60
2023-05-06T10:35:16.133Z,56.93
2023-05-06T10:36:16.170Z,58.97
2023-05-06T10:37:16.127Z,56.96
2023-05-06T10:38:16.102Z,59.03
2023-05-06T10:39:16.112Z,59.84
2023-05-06T10:40:16.123Z,59.19
2023-05-06T10:41:16.166Z,59.17
2023-05-06T10:42:16.199Z,57.29
2023-05-06T10:43:16.258Z,56.18
2023-05-06T10:44:16.293Z,59.88
2023-05-06T10:45:16.326Z,59.83
2023-05-06T10:46:16.547Z,60.36
2023-05-06T10:47:16.424Z,59.67
2023-05-06T10:48:16.491Z,58.29
2023-05-06T10:49:16.508Z,58.87
2023-05-06T10:50:16.599Z,59.43
2023-05-06T10:51:16.649Z,56.00
2023-05-06T10:52:16.636Z,58.06
2023-05-06T10:53:16.691Z,59.04
2023-05-06T10:54:16.744Z,62.32
2023-05-06T10:55:16.789Z,55.96
2023-05-06T10:56:16.824Z,57.77
2023-05-06T10:57:16.835Z,58.04
2023-05-06T10:58:16.924Z,58.74
2023-05-06T10:59:16.959Z,56.40
2023-05-06T11:00:16.991Z,57.20
2023-05-06T11:01:17.033Z,60.29
2023-05-06T11:02:17.102Z,56.84
2023-05-06T11:03:17.176Z,57.01
2023-05-06T11:04:17.169Z,57.48
2023-05-06T11:05:17.216Z,55.62
2023-05-06T11:06:17.262Z,55.47
2023-05-06T11:07:17.316Z,62.09
2023-05-06T11:08:17.328Z,56.75
2023-05-06T11:09:17.365Z,60.12
2023-05-06T11:10:17.414Z,54.59
2023-05-06T11:11:17.475Z,55.82
2023-05-06T11:12:17.515Z,55.69
2023-05-06T11:13:17.655Z,53.08
2023-05-06T11:14:17.586Z,55.23
2023-05-06T11:15:17.621Z,56.74
2023-05-06T11:16:17.692Z,57.34
2023-05-06T11:17:17.716Z,56.10
2023-05-06T11:18:17.799Z,55.43
2023-05-06T11:19:17.799Z,56.18
2023-05-06T11:20:17.839Z,54.94
2023-05-06T11:21:17.863Z,53.85
2023-05-06T11:22:17.940Z,54.87
2023-05-06T11:23:17.958Z,58.57
2023-05-06T11:24:17.966Z,57.57
2023-05-06T11:25:18.018Z,57.03
2023-05-06T11:26:18.051Z,54.57
2023-05-06T11:27:18.080Z,56.05
2023-05-06T11:28:18.131Z,57.00
2023-05-06T11:29:18.168Z,56.34
2023-05-06T11:30:18.179Z,56.23
2023-05-06T11:31:18.284Z,53.75
2023-05-06T11:32:18.266Z,56.41
2023-05-06T11:33:18.353Z,56.60
2023-05-06T11:34:18.474Z,56.49
2023-05-06T11:35:18.417Z,54.53
2023-05-06T11:36:18.475Z,56.17
2023-05-06T11:37:18.469Z,53.64
2023-05-06T11:38:18.529Z,54.96
2023-05-06T11:39:18.551Z,57.05
2023-05-06T11:40:18.587Z,54.03
2023-05-06T11:41:18.661Z,55.49
2023-05-06T11:42:18.692Z,55.68
2023-05-06T11:43:18.714Z,55.87
2023-05-06T11:44:18.755Z,55.86
2023-05-06T11:45:18.828Z,54.95
2023-05-06T11:46:18.904Z,51.90
2023-05-06T11:47:18.869Z,53.83
2023-05-06T11:48:18.926Z,57.20
2023-05-06T11:49:18.958Z,54.35
2023-05-06T11:50:19.073Z,55.36
2023-05-06T11:51:19.023Z,56.39
2023-05-06T11:52:19.070Z,55.32
2023-05-06T11:53:19.176Z,55.23
2023-05-06T11:54:19.145Z,54.66
2023-05-06T11:55:19.149Z,56.89
2023-05-06T11:56:19.172Z,56.85
2023-05-06T11:57:19.204Z,53.43
2023-05-06T11:58:19.259Z,54.74
2023-05-06T11:59:19.303Z,53.04
2023-05-06T12:00:19.320Z,55.67
2023-05-06T12:01:19.367Z,52.91
2023-05-06T12:02:19.445Z,52.62
2023-05-06T12:03:19.566Z,52.47
2023-05-06T12:04:19.445Z,52.92
2023-05-06T12:05:19.551Z,55.72
2023-05-06T12:06:19.516Z,54.51
2023-05-06T12:07:19.543Z,53.58
2023-05-06T12:08:26.881Z,52.59
2023-05-06T12:09:20.538Z,52.83
2023-05-06T12:10:19.541Z,53.21
2023-05-06T12:11:19.531Z,54.84
2023-05-06T12:12:19.520Z,54.59
2023-05-06T12:13:19.670Z,54.58
2023-05-06T12:14:19.545Z,55.21
2023-05-06T12:15:19.516Z,54.80
2023-05-06T12:16:19.507Z,53.10
2023-05-06T12:17:19.509Z,54.84
2023-05-06T12:18:19.474Z,54.30
2023-05-06T12:19:19.486Z,56.56
2023-05-06T12:20:19.442Z,55.55
2023-05-06T12:21:19.493Z,53.45
2023-05-06T12:22:19.610Z,53.87
2023-05-06T12:23:19.428Z,54.41
2023-05-06T12:24:19.501Z,51.45
2023-05-06T12:25:19.457Z,55.05
2023-05-06T12:26:19.429Z,53.08
2023-05-06T12:27:19.428Z,52.56
2023-05-06T12:28:19.441Z,54.15
2023-05-06T12:29:19.433Z,55.16
2023-05-06T12:30:19.494Z,55.36
2023-05-06T12:31:19.614Z,54.95
2023-05-06T12:32:19.535Z,54.03
2023-05-06T12:33:19.538Z,55.41
2023-05-06T12:34:19.581Z,54.48
2023-05-06T12:35:19.585Z,55.10
2023-05-06T12:36:19.760Z,55.94
2023-05-06T12:37:19.665Z,54.55
2023-05-06T12:38:19.720Z,56.58
2023-05-06T12:39:19.723Z,57.44
2023-05-06T12:40:19.726Z,55.64
2023-05-06T12:41:19.745Z,54.61
2023-05-06T12:42:19.744Z,55.48
2023-05-06T12:43:19.756Z,52.26
2023-05-06T12:44:19.809Z,53.21
2023-05-06T12:45:19.844Z,57.36
2023-05-06T12:46:19.967Z,52.08
2023-05-06T12:47:19.855Z,53.33